Time;durP1;ratioP1;P1;durP2;ratioP2;P2;SDS_P1;SDS_P2;PMS_P1;PMS_P2;Temp;Humidity;BMP_temperature;BMP_pressure;BME280_temperature;BME280_humidity;BME280_pressure;Samples;Min_cycle;Max_cycle;Signal;HPM_P1;HPM_P2
2021/06/28 00:34:53;;;;;;;3.17;2.10;;;;;;;;;;4869115;29;20538;-91
2021/06/28 00:44:49;;;;;;;3.83;2.40;;;;;;;;;;4906641;29;20039;-90
2021/06/28 01:02:06;;;;;;;4.65;2.13;;;;;;;;;;4839937;29;20041;-90
2021/06/28 01:04:54;;;;;;;5.07;2.60;;;;;;;;;;4846983;29;20483;-90
2021/06/28 01:11:15;;;;;;;;;;;;;;;;;;;;;
2021/06/28 01:14:23;;;;;;;4.68;2.70;;;;;;;;;;4951600;29;20446;-90
2021/06/28 01:55:33;;;;;;;3.17;2.35;;;;;;;;;;4941389;28;20557;-89
2021/06/28 02:01:41;;;;;;;3.97;2.63;;;;;;;;;;4926701;29;20039;-89
2021/06/28 02:04:30;;;;;;;5.47;2.38;;;;;;;;;;4933628;29;20026;-90
2021/06/28 02:07:47;;;;;;;;;;;;;;;;;;;;;
2021/06/28 03:23:06;;;;;;;;;;;;;;;;;;;;;
2021/06/28 03:40:35;;;;;;;5.15;2.38;;;;;;;;;;4825257;29;20037;-89
2021/06/28 03:43:22;;;;;;;3.97;3.08;;;;;;;;;;4916879;28;20039;-90
2021/06/28 03:46:16;;;;;;;6.50;2.67;;;;;;;;;;4973925;28;20058;-90
2021/06/28 03:49:22;;;;;;;3.88;2.67;;;;;;;;;;4968455;28;20030;-90
2021/06/28 03:52:45;;;;;;;7.53;2.97;;;;;;;;;;4923647;29;20036;-90
2021/06/28 04:32:27;;;;;;;4.25;3.03;;;;;;;;;;4437609;23;20046;-93
2021/06/28 04:35:15;;;;;;;5.32;2.85;;;;;;;;;;4951955;28;20030;-91
2021/06/28 04:38:00;;;;;;;5.05;2.55;;;;;;;;;;4962398;28;20054;-85
2021/06/28 04:40:48;;;;;;;5.20;3.17;;;;;;;;;;4975426;28;20049;-92
2021/06/28 04:43:33;;;;;;;5.90;2.95;;;;;;;;;;4958484;28;20023;-91
2021/06/28 04:46:18;;;;;;;3.13;2.55;;;;;;;;;;4970017;28;20046;-91
2021/06/28 04:49:04;;;;;;;3.63;2.78;;;;;;;;;;4975783;28;20676;-91
2021/06/28 04:51:49;;;;;;;6.20;3.00;;;;;;;;;;4978242;28;20058;-91
2021/06/28 04:54:35;;;;;;;3.25;2.60;;;;;;;;;;4960525;28;20027;-91
2021/06/28 04:57:20;;;;;;;4.15;2.83;;;;;;;;;;4969148;28;20101;-91
2021/06/28 05:00:06;;;;;;;5.63;3.05;;;;;;;;;;4966376;28;20023;-91
2021/06/28 05:02:52;;;;;;;5.55;3.20;;;;;;;;;;4953166;28;20045;-91
2021/06/28 05:05:37;;;;;;;6.43;2.90;;;;;;;;;;4960277;28;20393;-90
2021/06/28 05:08:22;;;;;;;5.68;2.92;;;;;;;;;;4964858;28;20072;-90
2021/06/28 05:11:08;;;;;;;6.10;2.72;;;;;;;;;;4976086;28;20022;-90
2021/06/28 05:13:53;;;;;;;4.18;2.83;;;;;;;;;;4966271;28;20052;-89
2021/06/28 05:16:38;;;;;;;6.65;2.80;;;;;;;;;;4977605;28;20073;-90
2021/06/28 05:19:24;;;;;;;4.30;3.00;;;;;;;;;;4964053;28;20037;-92
2021/06/28 05:22:28;;;;;;;3.92;2.72;;;;;;;;;;4973108;28;20030;-92
2021/06/28 05:25:19;;;;;;;5.38;3.13;;;;;;;;;;4973376;28;20681;-91
2021/06/28 05:28:04;;;;;;;5.10;3.15;;;;;;;;;;4970175;28;20018;-89
2021/06/28 05:30:53;;;;;;;6.68;2.95;;;;;;;;;;4970181;28;20057;-89
2021/06/28 05:33:38;;;;;;;4.32;2.85;;;;;;;;;;4983745;28;20790;-89
2021/06/28 05:36:24;;;;;;;5.22;3.28;;;;;;;;;;4987804;28;20030;-91
2021/06/28 05:39:39;;;;;;;3.80;2.80;;;;;;;;;;4980758;28;20038;-91
2021/06/28 05:42:28;;;;;;;7.60;3.60;;;;;;;;;;4962348;28;20045;-83
2021/06/28 05:45:13;;;;;;;4.57;2.75;;;;;;;;;;5000435;28;20500;-88
2021/06/28 05:47:59;;;;;;;4.97;3.05;;;;;;;;;;4986915;28;20081;-88
2021/06/28 05:50:44;;;;;;;6.38;3.03;;;;;;;;;;4988468;28;20020;-88
2021/06/28 05:53:43;;;;;;;5.85;2.97;;;;;;;;;;4981339;28;20172;-84
2021/06/28 05:56:34;;;;;;;3.05;2.70;;;;;;;;;;4979974;28;20049;-86
2021/06/28 05:59:19;;;;;;;4.97;2.83;;;;;;;;;;4978571;28;20671;-87
2021/06/28 06:02:08;;;;;;;4.07;2.97;;;;;;;;;;4983822;28;20034;-87
2021/06/28 06:05:00;;;;;;;4.57;2.37;;;;;;;;;;4982335;28;20032;-88
2021/06/28 06:11:09;;;;;;;4.82;2.80;;;;;;;;;;4988090;28;20033;-82
2021/06/28 06:13:54;;;;;;;4.53;2.53;;;;;;;;;;4989757;28;20026;-86
2021/06/28 06:16:39;;;;;;;6.18;3.03;;;;;;;;;;4973364;28;20684;-86
2021/06/28 06:19:28;;;;;;;11.48;3.00;;;;;;;;;;4988996;28;20041;-88
2021/06/28 06:22:32;;;;;;;3.57;2.70;;;;;;;;;;4979072;28;20638;-85
2021/06/28 06:25:26;;;;;;;3.40;2.53;;;;;;;;;;4977065;28;20328;-88
2021/06/28 06:31:52;;;;;;;5.30;2.65;;;;;;;;;;4951326;28;20472;-87
2021/06/28 06:34:42;;;;;;;5.28;2.63;;;;;;;;;;4981951;28;20038;-87
2021/06/28 06:37:31;;;;;;;2.78;2.35;;;;;;;;;;4984271;28;20034;-83
2021/06/28 06:40:20;;;;;;;4.60;2.28;;;;;;;;;;4987759;28;20029;-88
2021/06/28 06:43:21;;;;;;;3.40;2.20;;;;;;;;;;4970132;28;20473;-91
2021/06/28 06:46:22;;;;;;;4.10;2.33;;;;;;;;;;4959541;28;20123;-89
2021/06/28 06:49:16;;;;;;;6.10;2.40;;;;;;;;;;4943101;28;20032;-80
2021/06/28 06:52:02;;;;;;;3.70;2.20;;;;;;;;;;4944854;28;20566;-81
2021/06/28 06:54:47;;;;;;;5.50;2.65;;;;;;;;;;4991394;28;20637;-79
2021/06/28 06:57:33;;;;;;;5.32;2.38;;;;;;;;;;4986438;28;20723;-79
2021/06/28 07:00:19;;;;;;;5.20;2.03;;;;;;;;;;4995435;28;20037;-80
2021/06/28 07:03:04;;;;;;;6.05;3.13;;;;;;;;;;4986427;28;20029;-81
2021/06/28 07:05:50;;;;;;;3.90;2.38;;;;;;;;;;4991169;28;20018;-82
2021/06/28 07:08:36;;;;;;;2.90;2.28;;;;;;;;;;4986552;28;20441;-79
2021/06/28 07:11:24;;;;;;;4.28;2.13;;;;;;;;;;4993473;28;20018;-80
2021/06/28 07:14:09;;;;;;;3.08;2.45;;;;;;;;;;4987255;28;20377;-80
2021/06/28 07:16:55;;;;;;;3.80;2.20;;;;;;;;;;4971051;28;20105;-82
2021/06/28 07:19:40;;;;;;;3.85;2.60;;;;;;;;;;4987327;28;20092;-82
2021/06/28 07:22:25;;;;;;;3.13;2.38;;;;;;;;;;4984811;28;20694;-80
2021/06/28 07:25:11;;;;;;;3.25;2.05;;;;;;;;;;4992670;28;20038;-82
2021/06/28 07:27:58;;;;;;;3.92;2.58;;;;;;;;;;4993570;28;20026;-82
2021/06/28 07:30:43;;;;;;;2.58;2.13;;;;;;;;;;4987235;28;20034;-84
2021/06/28 07:33:29;;;;;;;4.40;2.10;;;;;;;;;;4987354;28;20519;-83
2021/06/28 07:36:14;;;;;;;4.05;2.47;;;;;;;;;;4983560;28;20417;-81
2021/06/28 07:39:03;;;;;;;4.30;2.00;;;;;;;;;;4985718;28;20107;-82
2021/06/28 07:41:50;;;;;;;4.65;2.22;;;;;;;;;;4991243;28;20042;-81
2021/06/28 07:44:35;;;;;;;3.03;2.10;;;;;;;;;;4990137;28;20024;-81
2021/06/28 07:47:20;;;;;;;2.95;2.33;;;;;;;;;;4993139;28;20499;-82
2021/06/28 07:50:07;;;;;;;2.40;2.08;;;;;;;;;;4985691;28;20029;-83
2021/06/28 07:52:52;;;;;;;4.95;2.17;;;;;;;;;;4994608;28;20396;-80
2021/06/28 07:55:38;;;;;;;2.47;2.28;;;;;;;;;;4985381;28;20033;-81
2021/06/28 07:58:23;;;;;;;3.58;2.42;;;;;;;;;;4991597;28;20061;-86
2021/06/28 08:01:09;;;;;;;2.83;2.03;;;;;;;;;;4987412;28;20048;-83
2021/06/28 08:03:55;;;;;;;1.92;1.70;;;;;;;;;;4987962;28;20033;-83
2021/06/28 08:06:42;;;;;;;2.67;2.22;;;;;;;;;;4986185;28;20030;-82
2021/06/28 08:09:27;;;;;;;3.33;1.95;;;;;;;;;;4989475;28;20034;-84
2021/06/28 08:12:15;;;;;;;2.83;2.10;;;;;;;;;;4989120;28;20092;-83
2021/06/28 08:15:00;;;;;;;2.63;2.00;;;;;;;;;;4988193;28;20130;-83
2021/06/28 08:17:50;;;;;;;3.58;2.35;;;;;;;;;;4977620;28;20489;-82
2021/06/28 08:20:37;;;;;;;3.65;1.95;;;;;;;;;;4987987;28;20068;-83
2021/06/28 08:23:23;;;;;;;2.20;2.00;;;;;;;;;;4980109;28;20030;-82
2021/06/28 08:26:09;;;;;;;5.60;2.28;;;;;;;;;;4982247;28;20046;-82
2021/06/28 08:28:56;;;;;;;3.83;2.75;;;;;;;;;;4980587;28;20030;-83
2021/06/28 08:31:41;;;;;;;4.00;1.85;;;;;;;;;;4979135;28;20021;-82
2021/06/28 08:34:27;;;;;;;3.60;1.95;;;;;;;;;;4992623;28;20449;-82
2021/06/28 08:37:13;;;;;;;4.22;2.50;;;;;;;;;;4970225;28;20571;-83
2021/06/28 08:39:58;;;;;;;5.60;2.15;;;;;;;;;;4981119;28;20076;-82
2021/06/28 08:42:43;;;;;;;4.15;2.40;;;;;;;;;;4992641;28;20199;-83
2021/06/28 08:45:34;;;;;;;4.82;2.20;;;;;;;;;;4988974;28;20025;-83
2021/06/28 08:48:20;;;;;;;7.55;2.15;;;;;;;;;;4991188;28;20030;-81
2021/06/28 08:51:06;;;;;;;4.65;2.03;;;;;;;;;;4987518;28;20030;-83
2021/06/28 08:53:56;;;;;;;2.72;2.03;;;;;;;;;;5004645;28;20393;-90
2021/06/28 08:56:43;;;;;;;2.92;1.80;;;;;;;;;;4985450;28;20508;-77
2021/06/28 08:59:28;;;;;;;2.97;2.00;;;;;;;;;;4991048;28;20030;-77
2021/06/28 09:02:13;;;;;;;3.90;1.90;;;;;;;;;;4987401;28;20018;-78
2021/06/28 09:05:00;;;;;;;3.00;2.28;;;;;;;;;;4988349;28;20010;-78
2021/06/28 09:07:45;;;;;;;2.88;1.90;;;;;;;;;;4990665;28;20464;-78
2021/06/28 09:10:32;;;;;;;3.08;1.92;;;;;;;;;;4991376;28;20045;-77
2021/06/28 09:13:17;;;;;;;4.10;2.00;;;;;;;;;;4986182;28;20101;-79
2021/06/28 09:16:20;;;;;;;3.33;2.00;;;;;;;;;;4969196;28;20022;-78
2021/06/28 09:19:12;;;;;;;3.78;1.88;;;;;;;;;;4976615;28;20045;-78
2021/06/28 09:21:57;;;;;;;3.92;1.92;;;;;;;;;;4993022;28;20021;-79
2021/06/28 09:24:49;;;;;;;2.35;2.00;;;;;;;;;;4983515;28;20025;-79
2021/06/28 09:27:44;;;;;;;3.75;2.05;;;;;;;;;;4979865;28;20018;-78
2021/06/28 09:30:30;;;;;;;4.80;2.20;;;;;;;;;;4985076;28;20108;-78
2021/06/28 09:33:18;;;;;;;3.40;1.92;;;;;;;;;;4986048;28;20046;-80
2021/06/28 09:36:23;;;;;;;2.40;2.20;;;;;;;;;;4987903;28;20411;-79
2021/06/28 09:39:20;;;;;;;3.80;2.50;;;;;;;;;;4978818;28;20038;-77
2021/06/28 09:42:08;;;;;;;2.22;2.00;;;;;;;;;;4977351;28;20026;-78
2021/06/28 09:44:59;;;;;;;4.57;2.20;;;;;;;;;;4977372;28;20026;-79
2021/06/28 09:47:45;;;;;;;3.83;2.20;;;;;;;;;;4981900;28;20379;-80
2021/06/28 09:50:30;;;;;;;4.63;1.98;;;;;;;;;;4986275;28;20506;-80
2021/06/28 09:53:26;;;;;;;3.55;2.20;;;;;;;;;;4985000;28;20097;-81
2021/06/28 09:56:27;;;;;;;2.58;2.17;;;;;;;;;;4985400;28;20480;-79
2021/06/28 09:59:21;;;;;;;4.03;1.95;;;;;;;;;;4987629;28;20495;-81
2021/06/28 10:02:14;;;;;;;3.72;2.10;;;;;;;;;;4991580;28;20022;-81
2021/06/28 10:05:15;;;;;;;2.53;2.20;;;;;;;;;;4967469;28;20033;-82
2021/06/28 10:08:01;;;;;;;4.32;2.60;;;;;;;;;;4975314;28;20477;-81
2021/06/28 10:10:46;;;;;;;6.75;2.35;;;;;;;;;;4981887;28;20038;-80
2021/06/28 10:13:31;;;;;;;4.60;2.20;;;;;;;;;;4970999;28;20026;-82
2021/06/28 10:16:19;;;;;;;3.97;2.33;;;;;;;;;;4984379;28;20416;-83
2021/06/28 10:19:06;;;;;;;5.57;2.53;;;;;;;;;;4990463;28;20026;-83
2021/06/28 10:21:52;;;;;;;4.80;2.40;;;;;;;;;;4981899;28;20721;-82
2021/06/28 10:24:38;;;;;;;5.22;2.03;;;;;;;;;;4985121;28;20452;-82
2021/06/28 10:27:24;;;;;;;3.85;2.13;;;;;;;;;;4966683;28;20025;-82
2021/06/28 10:30:11;;;;;;;6.05;2.28;;;;;;;;;;4991948;28;20048;-81
2021/06/28 10:33:04;;;;;;;2.65;1.98;;;;;;;;;;4984728;28;20050;-83
2021/06/28 10:35:58;;;;;;;5.88;2.30;;;;;;;;;;4966898;28;20034;-83
2021/06/28 10:38:46;;;;;;;2.97;2.20;;;;;;;;;;4981894;28;20030;-84
2021/06/28 10:41:39;;;;;;;3.88;2.30;;;;;;;;;;4977998;28;20026;-81
2021/06/28 10:44:26;;;;;;;4.88;2.20;;;;;;;;;;4998234;28;20029;-85
2021/06/28 10:47:11;;;;;;;3.55;2.38;;;;;;;;;;4980281;28;20022;-88
2021/06/28 10:49:58;;;;;;;5.07;2.15;;;;;;;;;;4981613;28;20026;-85
2021/06/28 10:52:44;;;;;;;5.07;2.30;;;;;;;;;;4983334;28;20038;-84
2021/06/28 10:55:29;;;;;;;4.63;2.40;;;;;;;;;;4970368;28;20033;-86
2021/06/28 10:58:31;;;;;;;7.82;2.50;;;;;;;;;;4980377;28;20113;-84
2021/06/28 11:01:32;;;;;;;3.58;2.53;;;;;;;;;;4989186;28;20061;-84
2021/06/28 11:04:36;;;;;;;3.20;2.70;;;;;;;;;;4983220;28;20023;-89
2021/06/28 11:07:27;;;;;;;2.75;2.38;;;;;;;;;;4984176;28;20023;-94
2021/06/28 11:10:32;;;;;;;2.60;2.10;;;;;;;;;;4992691;28;20040;-80
2021/06/28 11:13:38;;;;;;;8.80;2.60;;;;;;;;;;4986858;28;20028;-82
2021/06/28 11:16:33;;;;;;;5.57;3.08;;;;;;;;;;4968430;28;20052;-83
2021/06/28 11:19:37;;;;;;;3.00;2.50;;;;;;;;;;4979030;28;20019;-87
2021/06/28 11:22:25;;;;;;;5.47;2.67;;;;;;;;;;4981678;28;20500;-83
2021/06/28 11:25:12;;;;;;;3.20;2.20;;;;;;;;;;4983738;28;20026;-91
2021/06/28 11:27:57;;;;;;;3.75;2.42;;;;;;;;;;4971367;28;20488;-83
2021/06/28 11:30:46;;;;;;;5.60;2.35;;;;;;;;;;4980546;28;20172;-83
2021/06/28 11:33:32;;;;;;;3.43;2.07;;;;;;;;;;4976538;28;20637;-88
2021/06/28 11:36:27;;;;;;;4.53;2.30;;;;;;;;;;4973166;28;20069;-82
2021/06/28 11:39:15;;;;;;;2.72;2.10;;;;;;;;;;4976953;28;20030;-84
2021/06/28 11:42:22;;;;;;;2.53;2.05;;;;;;;;;;4973291;28;20331;-81
2021/06/28 11:45:09;;;;;;;3.00;2.58;;;;;;;;;;4978810;28;20018;-82
2021/06/28 11:47:59;;;;;;;3.83;2.33;;;;;;;;;;4976394;28;20029;-83
2021/06/28 11:50:44;;;;;;;3.08;2.47;;;;;;;;;;4999044;28;20141;-83
2021/06/28 11:53:31;;;;;;;3.65;2.40;;;;;;;;;;4977785;28;20092;-83
2021/06/28 11:56:20;;;;;;;4.53;2.55;;;;;;;;;;4981677;28;20034;-84
2021/06/28 11:59:06;;;;;;;2.83;2.28;;;;;;;;;;4970603;28;20348;-83
2021/06/28 12:01:55;;;;;;;4.85;2.75;;;;;;;;;;4976803;28;20020;-84
2021/06/28 12:04:42;;;;;;;4.00;2.20;;;;;;;;;;4973452;28;20029;-83
2021/06/28 12:07:27;;;;;;;2.47;2.28;;;;;;;;;;4979084;28;20030;-82
2021/06/28 12:10:12;;;;;;;3.05;2.58;;;;;;;;;;4976149;28;20484;-82
2021/06/28 12:12:58;;;;;;;4.07;2.63;;;;;;;;;;4980130;28;20034;-82
2021/06/28 12:15:44;;;;;;;2.85;2.33;;;;;;;;;;4979356;28;20081;-82
2021/06/28 12:18:29;;;;;;;2.85;2.25;;;;;;;;;;4981668;28;20622;-82
2021/06/28 12:21:27;;;;;;;2.50;1.88;;;;;;;;;;4977879;28;20034;-83
2021/06/28 12:24:16;;;;;;;2.97;2.17;;;;;;;;;;4983214;28;20173;-81
2021/06/28 12:27:03;;;;;;;3.88;2.78;;;;;;;;;;4975939;28;20030;-81
2021/06/28 12:29:51;;;;;;;3.15;2.35;;;;;;;;;;4975142;28;20027;-79
2021/06/28 12:32:44;;;;;;;3.53;2.08;;;;;;;;;;4979249;28;20506;-81
2021/06/28 12:35:30;;;;;;;5.38;2.50;;;;;;;;;;4950171;28;20081;-82
2021/06/28 12:38:15;;;;;;;2.97;2.40;;;;;;;;;;4966531;28;20067;-81
2021/06/28 12:41:00;;;;;;;5.25;2.55;;;;;;;;;;4970582;28;20023;-83
2021/06/28 12:43:46;;;;;;;6.00;2.20;;;;;;;;;;4969836;28;20027;-80
2021/06/28 12:46:31;;;;;;;3.45;2.30;;;;;;;;;;4964079;28;20122;-81
2021/06/28 12:49:17;;;;;;;3.85;2.63;;;;;;;;;;4969396;28;20058;-82
2021/06/28 12:52:25;;;;;;;3.33;2.50;;;;;;;;;;4950295;28;20235;-81
2021/06/28 12:55:11;;;;;;;3.03;2.47;;;;;;;;;;4968555;28;20026;-81
2021/06/28 12:58:22;;;;;;;2.83;2.60;;;;;;;;;;4964047;28;20073;-81
2021/06/28 13:01:07;;;;;;;5.47;2.47;;;;;;;;;;4965724;28;20061;-80
2021/06/28 13:03:53;;;;;;;4.32;2.60;;;;;;;;;;4971383;28;20054;-84
2021/06/28 13:06:38;;;;;;;3.75;2.50;;;;;;;;;;4968248;28;20019;-82
2021/06/28 13:09:24;;;;;;;3.92;2.38;;;;;;;;;;4964237;28;20039;-82
2021/06/28 13:12:10;;;;;;;3.65;2.60;;;;;;;;;;4963796;28;20124;-80
2021/06/28 13:15:33;;;;;;;2.83;2.38;;;;;;;;;;4963331;28;20050;-79
2021/06/28 13:18:19;;;;;;;4.13;2.90;;;;;;;;;;4969344;28;20030;-79
2021/06/28 13:21:16;;;;;;;2.63;2.42;;;;;;;;;;4974949;28;20065;-80
2021/06/28 13:24:02;;;;;;;3.83;2.50;;;;;;;;;;4965605;28;20653;-81
2021/06/28 13:26:48;;;;;;;3.55;2.95;;;;;;;;;;4968352;28;20054;-80
2021/06/28 13:29:38;;;;;;;4.90;2.45;;;;;;;;;;4971933;28;20587;-80
2021/06/28 13:32:28;;;;;;;3.10;2.80;;;;;;;;;;4972494;28;20054;-80
2021/06/28 13:35:29;;;;;;;5.07;2.80;;;;;;;;;;4971234;28;20380;-80
2021/06/28 13:38:19;;;;;;;3.50;2.47;;;;;;;;;;4975055;28;20026;-80
2021/06/28 13:41:08;;;;;;;2.83;2.63;;;;;;;;;;4982344;28;20034;-79
2021/06/28 13:44:13;;;;;;;3.50;2.60;;;;;;;;;;4975170;28;20029;-80
2021/06/28 13:47:11;;;;;;;4.97;3.15;;;;;;;;;;4966940;28;20027;-82
2021/06/28 13:50:00;;;;;;;3.17;2.38;;;;;;;;;;4974858;28;20022;-85
2021/06/28 13:52:52;;;;;;;4.32;2.78;;;;;;;;;;4970569;28;20038;-80
2021/06/28 13:55:38;;;;;;;5.25;2.80;;;;;;;;;;4972825;28;20376;-81
2021/06/28 13:58:25;;;;;;;4.68;2.80;;;;;;;;;;4978890;28;20026;-82
2021/06/28 14:01:10;;;;;;;4.18;2.78;;;;;;;;;;4978820;28;20388;-82
2021/06/28 14:03:55;;;;;;;5.97;2.40;;;;;;;;;;4970324;28;20050;-83
2021/06/28 14:06:41;;;;;;;4.05;3.10;;;;;;;;;;4967920;28;20033;-84
2021/06/28 14:09:26;;;;;;;5.35;2.50;;;;;;;;;;4979199;28;20036;-84
2021/06/28 14:12:11;;;;;;;3.45;2.35;;;;;;;;;;4978459;28;20038;-84
2021/06/28 14:14:56;;;;;;;3.70;2.58;;;;;;;;;;4963099;28;20030;-82
2021/06/28 14:17:42;;;;;;;2.53;2.30;;;;;;;;;;4975870;28;20035;-81
2021/06/28 14:20:29;;;;;;;2.88;2.38;;;;;;;;;;4969098;28;20026;-81
2021/06/28 14:23:14;;;;;;;2.72;2.45;;;;;;;;;;4977539;28;20469;-83
2021/06/28 14:26:00;;;;;;;4.28;2.67;;;;;;;;;;4974271;28;20477;-84
2021/06/28 14:28:45;;;;;;;4.43;2.17;;;;;;;;;;4978503;28;20018;-82
2021/06/28 14:31:31;;;;;;;5.20;2.40;;;;;;;;;;4968910;28;20120;-82
2021/06/28 14:34:16;;;;;;;3.83;2.60;;;;;;;;;;4973199;28;20082;-81
2021/06/28 14:37:01;;;;;;;5.25;2.60;;;;;;;;;;4971920;28;20033;-82
2021/06/28 14:39:47;;;;;;;3.25;2.60;;;;;;;;;;4978370;28;20026;-82
2021/06/28 14:42:32;;;;;;;3.63;2.42;;;;;;;;;;4979507;28;20037;-81
2021/06/28 14:45:17;;;;;;;2.72;2.42;;;;;;;;;;4963738;28;20570;-81
2021/06/28 14:48:07;;;;;;;3.33;2.55;;;;;;;;;;4972600;28;20014;-81
2021/06/28 14:50:54;;;;;;;4.35;2.40;;;;;;;;;;4967750;28;20029;-80
2021/06/28 14:53:39;;;;;;;4.00;2.53;;;;;;;;;;4965419;28;20166;-80
2021/06/28 14:56:24;;;;;;;2.95;2.65;;;;;;;;;;4960887;28;20054;-80
2021/06/28 14:59:10;;;;;;;4.65;2.60;;;;;;;;;;4980684;28;20038;-79
2021/06/28 15:01:55;;;;;;;6.00;2.88;;;;;;;;;;4954911;28;20030;-80
2021/06/28 15:04:40;;;;;;;4.30;2.78;;;;;;;;;;4979187;28;20307;-80
2021/06/28 15:07:25;;;;;;;3.17;2.72;;;;;;;;;;4983713;28;20025;-80
2021/06/28 15:10:11;;;;;;;2.55;2.35;;;;;;;;;;4978797;28;20366;-80
2021/06/28 15:12:56;;;;;;;3.22;2.88;;;;;;;;;;4976848;28;20031;-80
2021/06/28 15:15:41;;;;;;;5.05;2.53;;;;;;;;;;4990500;28;20109;-80
2021/06/28 15:18:27;;;;;;;5.65;2.63;;;;;;;;;;4969414;28;20031;-80
2021/06/28 15:21:12;;;;;;;4.43;2.75;;;;;;;;;;4972342;28;20582;-80
2021/06/28 15:23:58;;;;;;;3.05;2.55;;;;;;;;;;4973809;28;20030;-80
2021/06/28 15:26:45;;;;;;;4.85;2.72;;;;;;;;;;4976365;28;20018;-80
2021/06/28 15:29:34;;;;;;;3.05;2.70;;;;;;;;;;4971630;28;20026;-82
2021/06/28 15:32:19;;;;;;;3.60;2.70;;;;;;;;;;4984890;28;20118;-81
2021/06/28 15:35:06;;;;;;;3.17;2.70;;;;;;;;;;4959732;28;20237;-81
2021/06/28 15:37:51;;;;;;;5.88;3.17;;;;;;;;;;4970901;28;20057;-80
2021/06/28 15:40:37;;;;;;;4.63;2.78;;;;;;;;;;4966813;28;20113;-81
2021/06/28 15:43:23;;;;;;;5.70;2.95;;;;;;;;;;4982441;28;20118;-80
2021/06/28 15:46:09;;;;;;;6.10;2.47;;;;;;;;;;4985087;28;20107;-81
2021/06/28 15:48:54;;;;;;;3.55;2.53;;;;;;;;;;4973106;28;20603;-78
2021/06/28 15:51:39;;;;;;;5.25;3.33;;;;;;;;;;4982530;28;20015;-78
2021/06/28 15:54:25;;;;;;;3.90;3.10;;;;;;;;;;4977994;28;20050;-77
2021/06/28 15:57:10;;;;;;;6.85;3.50;;;;;;;;;;4976356;28;20548;-78
2021/06/28 15:59:55;;;;;;;13.32;5.40;;;;;;;;;;4974713;28;20030;-78
2021/06/28 16:02:41;;;;;;;3.55;2.70;;;;;;;;;;4980383;28;20049;-79
2021/06/28 16:05:26;;;;;;;4.30;2.60;;;;;;;;;;4976509;28;20117;-81
2021/06/28 16:08:12;;;;;;;5.28;2.70;;;;;;;;;;4967210;28;20050;-76
2021/06/28 16:10:57;;;;;;;6.95;3.05;;;;;;;;;;4973968;28;20023;-76
2021/06/28 16:13:42;;;;;;;3.95;2.65;;;;;;;;;;4974689;28;20073;-77
2021/06/28 16:16:27;;;;;;;5.45;3.10;;;;;;;;;;4971679;28;20038;-78
2021/06/28 16:19:13;;;;;;;4.78;2.50;;;;;;;;;;4977650;28;20120;-77
2021/06/28 16:21:58;;;;;;;6.80;2.72;;;;;;;;;;4979184;28;20034;-78
2021/06/28 16:24:43;;;;;;;4.90;2.72;;;;;;;;;;4976905;28;20469;-77
2021/06/28 16:27:29;;;;;;;5.53;2.30;;;;;;;;;;4976502;28;20072;-79
2021/06/28 16:30:14;;;;;;;3.53;2.35;;;;;;;;;;4972027;28;20501;-80
2021/06/28 16:32:59;;;;;;;3.80;2.38;;;;;;;;;;4974829;28;20096;-79
2021/06/28 16:35:45;;;;;;;4.38;2.00;;;;;;;;;;4974207;28;20505;-81
2021/06/28 16:38:30;;;;;;;3.85;2.65;;;;;;;;;;4959163;28;20082;-80
2021/06/28 16:41:15;;;;;;;4.18;2.30;;;;;;;;;;4979769;28;20816;-79
2021/06/28 16:44:00;;;;;;;5.00;2.60;;;;;;;;;;4973827;28;20515;-80
2021/06/28 16:46:45;;;;;;;3.63;2.28;;;;;;;;;;4979083;28;20052;-80
2021/06/28 16:49:31;;;;;;;3.13;2.30;;;;;;;;;;4968467;28;20689;-80
2021/06/28 16:52:17;;;;;;;3.75;2.80;;;;;;;;;;4975457;28;20034;-83
2021/06/28 16:55:02;;;;;;;5.90;2.95;;;;;;;;;;4961536;28;20504;-79
2021/06/28 16:57:48;;;;;;;4.07;2.72;;;;;;;;;;4959893;28;20027;-80
2021/06/28 17:00:33;;;;;;;6.75;2.40;;;;;;;;;;4969917;28;20034;-80
2021/06/28 17:03:18;;;;;;;3.13;2.70;;;;;;;;;;4981188;28;20030;-80
2021/06/28 17:06:03;;;;;;;3.85;2.70;;;;;;;;;;4958710;28;20315;-81
2021/06/28 17:08:49;;;;;;;5.25;2.75;;;;;;;;;;4974232;28;20026;-81
2021/06/28 17:11:34;;;;;;;5.00;2.78;;;;;;;;;;4980626;28;20033;-80
2021/06/28 17:14:20;;;;;;;3.00;2.30;;;;;;;;;;4983291;28;20061;-83
2021/06/28 17:17:05;;;;;;;6.13;2.83;;;;;;;;;;4973003;28;20027;-81
2021/06/28 17:19:51;;;;;;;3.63;2.67;;;;;;;;;;4980637;28;20014;-81
2021/06/28 17:22:36;;;;;;;7.50;3.13;;;;;;;;;;4969577;28;20046;-82
2021/06/28 17:25:21;;;;;;;4.15;2.50;;;;;;;;;;4982412;28;20031;-83
2021/06/28 17:28:07;;;;;;;3.50;2.40;;;;;;;;;;4974958;28;20069;-84
2021/06/28 17:30:52;;;;;;;7.75;2.40;;;;;;;;;;4974471;28;20030;-84
2021/06/28 17:33:38;;;;;;;3.58;2.97;;;;;;;;;;4970609;28;20058;-83
2021/06/28 17:36:24;;;;;;;3.38;2.45;;;;;;;;;;4947298;28;20031;-84
2021/06/28 17:39:14;;;;;;;7.78;3.03;;;;;;;;;;4961177;28;20034;-84
2021/06/28 17:41:59;;;;;;;5.57;2.95;;;;;;;;;;4966508;28;20022;-83
2021/06/28 17:44:44;;;;;;;4.72;2.42;;;;;;;;;;4964212;28;20027;-84
2021/06/28 17:47:29;;;;;;;5.63;3.05;;;;;;;;;;4963928;28;20026;-82
2021/06/28 17:50:15;;;;;;;4.43;2.60;;;;;;;;;;4964941;28;20022;-82
2021/06/28 17:53:00;;;;;;;5.72;3.10;;;;;;;;;;4959740;28;20022;-83
2021/06/28 17:55:45;;;;;;;6.28;3.22;;;;;;;;;;4958319;28;20159;-84
2021/06/28 17:58:31;;;;;;;6.63;2.67;;;;;;;;;;4965476;28;20026;-82
2021/06/28 18:01:17;;;;;;;5.90;2.90;;;;;;;;;;4950742;28;20041;-83
2021/06/28 18:04:02;;;;;;;3.30;2.20;;;;;;;;;;4967457;28;20022;-86
2021/06/28 18:06:47;;;;;;;5.60;2.00;;;;;;;;;;4967566;28;20019;-85
2021/06/28 18:09:34;;;;;;;7.88;2.13;;;;;;;;;;4966042;28;20422;-90
2021/06/28 18:12:21;;;;;;;4.43;1.75;;;;;;;;;;4971503;28;20425;-92
2021/06/28 18:15:07;;;;;;;5.50;2.45;;;;;;;;;;4965193;28;20030;-89
2021/06/28 18:17:53;;;;;;;6.43;2.75;;;;;;;;;;4972748;28;20116;-89
2021/06/28 18:20:38;;;;;;;12.43;3.30;;;;;;;;;;4973745;28;20030;-88
2021/06/28 18:23:23;;;;;;;18.85;4.47;;;;;;;;;;4971678;28;20048;-86
2021/06/28 18:26:09;;;;;;;5.30;2.58;;;;;;;;;;4968386;28;20097;-85
2021/06/28 18:32:17;;;;;;;17.67;5.20;;;;;;;;;;4962372;28;20047;-88
2021/06/28 18:35:03;;;;;;;10.50;4.63;;;;;;;;;;4982886;28;20080;-87
2021/06/28 18:37:48;;;;;;;13.55;4.35;;;;;;;;;;4985897;28;20208;-87
2021/06/28 18:40:34;;;;;;;8.20;3.63;;;;;;;;;;4968199;28;20030;-85
2021/06/28 18:43:26;;;;;;;9.75;3.90;;;;;;;;;;4985976;28;20018;-87
2021/06/28 18:46:12;;;;;;;7.20;3.42;;;;;;;;;;4975238;28;20022;-87
2021/06/28 18:48:59;;;;;;;9.75;3.53;;;;;;;;;;4982931;28;20180;-86
2021/06/28 18:51:45;;;;;;;5.90;2.97;;;;;;;;;;4983951;28;20401;-84
2021/06/28 18:54:30;;;;;;;6.93;3.25;;;;;;;;;;4986732;28;20113;-87
2021/06/28 18:57:16;;;;;;;6.40;2.95;;;;;;;;;;4984891;28;20026;-85
2021/06/28 19:00:02;;;;;;;4.90;2.40;;;;;;;;;;4983051;28;20022;-86
2021/06/28 19:02:51;;;;;;;4.15;2.20;;;;;;;;;;4985783;28;20304;-87
2021/06/28 19:05:37;;;;;;;4.78;2.13;;;;;;;;;;4979965;28;20030;-86
2021/06/28 19:08:25;;;;;;;5.25;2.58;;;;;;;;;;4993498;28;20436;-85
2021/06/28 19:11:13;;;;;;;7.15;2.50;;;;;;;;;;4983689;28;20041;-86
2021/06/28 19:13:58;;;;;;;3.63;2.15;;;;;;;;;;4993121;28;20472;-87
2021/06/28 19:16:44;;;;;;;5.25;2.50;;;;;;;;;;4980996;28;20029;-89
2021/06/28 19:19:29;;;;;;;3.40;2.33;;;;;;;;;;4985722;28;20025;-86
2021/06/28 19:22:15;;;;;;;6.82;3.17;;;;;;;;;;4985577;28;20034;-86
2021/06/28 19:25:00;;;;;;;7.50;2.88;;;;;;;;;;4988312;28;20064;-85
2021/06/28 19:27:46;;;;;;;3.63;2.42;;;;;;;;;;4982909;28;20048;-85
2021/06/28 19:30:31;;;;;;;3.85;2.08;;;;;;;;;;4986344;28;20025;-84
2021/06/28 19:33:16;;;;;;;5.38;2.67;;;;;;;;;;4975770;28;20050;-85
2021/06/28 19:36:03;;;;;;;3.25;2.47;;;;;;;;;;4981906;28;20046;-86
2021/06/28 19:38:48;;;;;;;5.35;2.78;;;;;;;;;;4990570;28;20489;-85
2021/06/28 19:41:34;;;;;;;4.38;2.40;;;;;;;;;;4980860;28;20077;-86
2021/06/28 19:44:28;;;;;;;4.55;2.70;;;;;;;;;;4988145;28;20049;-85
2021/06/28 19:47:13;;;;;;;7.32;2.65;;;;;;;;;;4983317;28;20057;-84
2021/06/28 19:49:58;;;;;;;8.48;2.92;;;;;;;;;;4985543;28;20029;-84
2021/06/28 19:52:45;;;;;;;6.65;2.97;;;;;;;;;;4984980;28;20095;-84
2021/06/28 19:55:33;;;;;;;3.90;2.75;;;;;;;;;;4974587;28;20022;-85
2021/06/28 19:58:18;;;;;;;4.70;2.88;;;;;;;;;;4974150;28;20026;-83
2021/06/28 20:01:05;;;;;;;7.30;2.88;;;;;;;;;;4986649;28;20546;-84
2021/06/28 20:03:50;;;;;;;10.95;3.10;;;;;;;;;;4982401;28;20038;-84
2021/06/28 20:06:35;;;;;;;7.10;3.80;;;;;;;;;;4993086;28;20096;-85
2021/06/28 20:09:21;;;;;;;7.70;3.03;;;;;;;;;;4985675;28;20080;-84
2021/06/28 20:12:06;;;;;;;6.25;2.47;;;;;;;;;;4986227;28;20547;-84
2021/06/28 20:14:51;;;;;;;4.50;2.80;;;;;;;;;;4980826;28;20424;-85
2021/06/28 20:17:37;;;;;;;6.45;2.83;;;;;;;;;;4987146;28;20049;-85
2021/06/28 20:20:22;;;;;;;3.65;2.33;;;;;;;;;;4988744;28;20263;-85
2021/06/28 20:23:08;;;;;;;6.72;2.67;;;;;;;;;;4987683;28;20381;-85
2021/06/28 20:25:54;;;;;;;4.20;2.10;;;;;;;;;;4992853;28;20396;-85
2021/06/28 20:28:39;;;;;;;5.18;2.38;;;;;;;;;;4987220;28;20022;-84
2021/06/28 20:31:24;;;;;;;4.88;2.63;;;;;;;;;;4983294;28;20543;-85
2021/06/28 20:34:10;;;;;;;3.88;2.20;;;;;;;;;;4983351;28;20093;-84
2021/06/28 20:36:55;;;;;;;4.97;2.20;;;;;;;;;;4974560;28;20050;-84
2021/06/28 20:39:40;;;;;;;5.20;2.60;;;;;;;;;;4982084;28;20081;-84
2021/06/28 20:42:26;;;;;;;8.25;3.92;;;;;;;;;;4983118;28;20040;-87
2021/06/28 20:45:11;;;;;;;4.38;2.20;;;;;;;;;;4971469;28;20311;-84